ADDS METAR Data INFO
IDs: Format: Raw Decoded Include TAF

Data at: 0211 UTC 19 Jul 2018

K0F2 190155Z AUTO 14003KT 10SM CLR 33/18 A2985 RMK AO2 T03250181
K0F2 190135Z AUTO 00000KT 10SM CLR 34/17 A2985 RMK AO2 T03370174
K0F2 190115Z AUTO 14003KT 10SM CLR 35/18 A2985 RMK AO2 T03510176
K0F2 190055Z AUTO 00000KT 10SM CLR 37/17 A2985 RMK AO2 T03650168
K0F2 190035Z AUTO 15003KT 10SM CLR 38/16 A2985 RMK AO2 T03760158
K0F2 190015Z AUTO 17004KT 10SM CLR 38/15 A2985 RMK AO2 T03810154
K0F2 182355Z AUTO 15003KT 10SM CLR 39/14 A2985 RMK AO2 T03880141 10400 20368
K0F2 182335Z AUTO 16004KT 10SM CLR 39/14 A2985 RMK AO2 T03900140
K0F2 182315Z AUTO 00000KT 10SM CLR 39/14 A2986 RMK AO2 T03940137
K0F2 182255Z AUTO 00000KT 10SM CLR 39/13 A2986 RMK AO2 T03940131
K0F2 182235Z AUTO 00000KT 10SM CLR 39/13 A2987 RMK AO2 T03930129
K0F2 182215Z AUTO 18004KT 10SM CLR 39/13 A2987 RMK AO2 T03940131
K0F2 182155Z AUTO 00000KT 10SM CLR 39/13 A2988 RMK AO2 T03900131
K0F2 182135Z AUTO 20005KT 10SM CLR 38/14 A2989 RMK AO2 T03840138
K0F2 182115Z AUTO 28004KT 10SM CLR 40/13 A2989 RMK AO2 T03960132
K0F2 182055Z AUTO 30006KT 10SM CLR 40/14 A2990 RMK AO2 T03950138
K0F2 182035Z AUTO 27003KT 10SM CLR 39/13 A2990 RMK AO2 T03900132
K0F2 182015Z AUTO 26004KT 10SM CLR 39/14 A2991 RMK AO2 T03900142
K0F2 181955Z AUTO 00000KT 10SM CLR 39/14 A2992 RMK AO2 T03870144
K0F2 181935Z AUTO 23004KT 10SM CLR 39/15 A2993 RMK AO2 T03870153
K0F2 181915Z AUTO 19004KT 10SM CLR 38/15 A2993 RMK AO2 T03830154
K0F2 181855Z AUTO 21007KT 10SM CLR 38/16 A2994 RMK AO2 T03770157
K0F2 181835Z AUTO 28008KT 10SM CLR 38/16 A2995 RMK AO2 T03750156
K0F2 181815Z AUTO 22006KT 10SM CLR 37/16 A2996 RMK AO2 T03720157
K0F2 181755Z AUTO 26008KT 10SM CLR 37/16 A2996 RMK AO2 T03680159 10368 20237
K0F2 181735Z AUTO 24006G14KT 10SM CLR 36/16 A2997 RMK AO2 T03620159
K0F2 181715Z AUTO 24009KT 10SM CLR 36/16 A2997 RMK AO2 T03590157
K0F2 181655Z AUTO 23008KT 10SM CLR 36/16 A2997 RMK AO2 T03570159
K0F2 181635Z AUTO 25007G14KT 10SM CLR 35/16 A2997 RMK AO2 T03500157
K0F2 181615Z AUTO 24011G15KT 10SM CLR 35/16 A2998 RMK AO2 T03480158
K0F2 181555Z AUTO 22007KT 10SM CLR 34/17 A2998 RMK AO2 T03390170
K0F2 181535Z AUTO 22008KT 10SM CLR 33/17 A2998 RMK AO2 T03270165
K0F2 181515Z AUTO 22006KT 10SM CLR 31/17 A2999 RMK AO2 T03140171
K0F2 181455Z AUTO 22008KT 190V250 10SM CLR 31/17 A3000 RMK AO2 T03090170
K0F2 181435Z AUTO 00000KT 10SM CLR 30/17 A3000 RMK AO2 T02980166
K0F2 181415Z AUTO 00000KT 10SM CLR 29/17 A3000 RMK AO2 T02880166
K0F2 181355Z AUTO 21005KT 10SM CLR 29/16 A3000 RMK AO2 T02850164
K0F2 181335Z AUTO 33006KT 10SM CLR 28/16 A3000 RMK AO2 T02830163
K0F2 181315Z AUTO 00000KT 10SM CLR 27/16 A2999 RMK AO2 T02740161
K0F2 181255Z AUTO 01008KT 10SM CLR 25/16 A2999 RMK AO2 T02460159
K0F2 181235Z AUTO 16003KT 10SM CLR 24/16 A2998 RMK AO2 T02370159
K0F2 181215Z AUTO 16003KT 10SM CLR 24/15 A2998 RMK AO2 T02430150
K0F2 181155Z AUTO 18003KT 10SM CLR 25/15 A2997 RMK AO2 T02450147 10304 20245
K0F2 181135Z AUTO 00000KT 10SM CLR 25/15 A2997 RMK AO2 T02500146
K0F2 181115Z AUTO 18004KT 10SM CLR 25/15 A2996 RMK AO2 T02500146
K0F2 181055Z AUTO 18004KT 10SM CLR 25/15 A2996 RMK AO2 T02520146
K0F2 181035Z AUTO 18004KT 10SM CLR 26/15 A2996 RMK AO2 T02550145
K0F2 181015Z AUTO 17005KT 10SM CLR 27/15 A2995 RMK AO2 T02660145
K0F2 180955Z AUTO 19006KT 10SM CLR 27/14 A2995 RMK AO2 T02730143
K0F2 180935Z AUTO 20007KT 10SM CLR 28/14 A2995 RMK AO2 T02770142
K0F2 180915Z AUTO 19008KT 10SM CLR 27/14 A2995 RMK AO2 T02710144
K0F2 180855Z AUTO 19007KT 10SM CLR 27/15 A2995 RMK AO2 T02710145
K0F2 180835Z AUTO 19006KT 10SM CLR 27/15 A2995 RMK AO2 T02710145
K0F2 180815Z AUTO 19006KT 10SM CLR 28/15 A2995 RMK AO2 T02760145
K0F2 180755Z AUTO 19006KT 10SM CLR 28/15 A2995 RMK AO2 T02770145
K0F2 180735Z AUTO 19006KT 10SM CLR 27/15 A2995 RMK AO2 T02720145
K0F2 180715Z AUTO 18006KT 10SM CLR 28/14 A2995 RMK AO2 T02750142
K0F2 180655Z AUTO 18006KT 10SM CLR 28/14 A2995 RMK AO2 T02800140
K0F2 180635Z AUTO 17005KT 10SM CLR 29/14 A2996 RMK AO2 T02870136
K0F2 180615Z AUTO 17007KT 10SM CLR 30/13 A2996 RMK AO2 T02970133
K0F2 180555Z AUTO 17008KT 10SM CLR 31/13 A2996 RMK AO2 T03050133 10376 20282 403940218
K0F2 180535Z AUTO 17008KT 10SM CLR 31/14 A2996 RMK AO2 T03050141
K0F2 180515Z AUTO 17004KT 10SM CLR 30/15 A2997 RMK AO2 T03040145
K0F2 180455Z AUTO 16003KT 10SM CLR 30/15 A2997 RMK AO2 T02970151
K0F2 180435Z AUTO 17004KT 10SM CLR 29/15 A2997 RMK AO2 T02920151
K0F2 180415Z AUTO 16003KT 10SM CLR 30/15 A2997 RMK AO2 T02960154
K0F2 180355Z AUTO 16004KT 10SM CLR 30/16 A2997 RMK AO2 T02970161
K0F2 180335Z AUTO 00000KT 10SM CLR 29/17 A2996 RMK AO2 T02910169
K0F2 180315Z AUTO 00000KT 10SM CLR 29/18 A2995 RMK AO2 T02910175
K0F2 180255Z AUTO 00000KT 10SM CLR 29/18 A2995 RMK AO2 T02900179
K0F2 180235Z AUTO 00000KT 10SM CLR 29/18 A2993 RMK AO2 T02920182
K0F2 180215Z AUTO 00000KT 10SM CLR 30/19 A2993 RMK AO2 T03000185
K0F2 180155Z AUTO 00000KT 10SM CLR 32/18 A2993 RMK AO2 T03200175
K0F2 180135Z AUTO 00000KT 10SM CLR 33/17 A2993 RMK AO2 T03280170
K0F2 180115Z AUTO 00000KT 10SM CLR 34/17 A2993 RMK AO2 T03440167
K0F2 180055Z AUTO 15003KT 10SM CLR 36/16 A2993 RMK AO2 T03550163
K0F2 180035Z AUTO 16003KT 10SM CLR 37/16 A2993 RMK AO2 T03670158
K0F2 180015Z AUTO 15004KT 7SM CLR 38/15 A2993 RMK AO2 T03750150
K0F2 172355Z AUTO 17005KT 7SM CLR 38/15 A2993 RMK AO2 T03760152 10394 20361
K0F2 172335Z AUTO 14005KT 10SM CLR 38/15 A2993 RMK AO2 T03810147
K0F2 172315Z AUTO 17007KT 10SM CLR 38/15 A2993 RMK AO2 T03830149
K0F2 172255Z AUTO 17007KT 10SM CLR 39/15 A2993 RMK AO2 T03850148
K0F2 172235Z AUTO 15007KT 120V190 10SM CLR 39/16 A2994 RMK AO2 T03890155
K0F2 172215Z AUTO 20004KT 10SM CLR 39/14 A2995 RMK AO2 T03870138
K0F2 172155Z AUTO 21007KT 10SM CLR 39/14 A2995 RMK AO2 T03900142
K0F2 172135Z AUTO 14004KT 7SM CLR 39/15 A2996 RMK AO2 T03870147
K0F2 172115Z AUTO 00000KT 7SM CLR 38/14 A2997 RMK AO2 T03840141
K0F2 172055Z AUTO 16004KT 7SM CLR 39/15 A2998 RMK AO2 T03890151
K0F2 172035Z AUTO 00000KT 7SM CLR 38/16 A2998 RMK AO2 T03830155
K0F2 172015Z AUTO 23004KT 10SM CLR 38/16 A2999 RMK AO2 T03840156
K0F2 171955Z AUTO 26003KT 7SM CLR 38/16 A2999 RMK AO2 T03810157
K0F2 171935Z AUTO 00000KT 7SM CLR 37/16 A3000 RMK AO2 T03740155
K0F2 171915Z AUTO 25006KT 7SM CLR 38/16 A3001 RMK AO2 T03750163
K0F2 171855Z AUTO 18004KT 7SM CLR 37/17 A3001 RMK AO2 T03740165
K0F2 171835Z AUTO 23006KT 7SM CLR 37/17 A3002 RMK AO2 T03740168
K0F2 171815Z AUTO 27005KT 7SM CLR 37/17 A3003 RMK AO2 T03670173
K0F2 171755Z AUTO 26007KT 7SM CLR 36/18 A3003 RMK AO2 T03630175 10365 20220
K0F2 171735Z AUTO 23006KT 7SM CLR 35/17 A3004 RMK AO2 T03540172
K0F2 171715Z AUTO 24009KT 220V290 7SM CLR 35/18 A3005 RMK AO2 T03510176
K0F2 171655Z AUTO 24006G14KT 7SM CLR 35/17 A3005 RMK AO2 T03490174
K0F2 171635Z AUTO 25008KT 7SM CLR 34/18 A3005 RMK AO2 T03440178
K0F2 171615Z AUTO 27010KT 7SM CLR 34/18 A3005 RMK AO2 T03380176
K0F2 171555Z AUTO 25009KT 7SM CLR 33/18 A3005 RMK AO2 T03330178
K0F2 171535Z AUTO 23007KT 7SM CLR 33/19 A3005 RMK AO2 T03260187
K0F2 171515Z AUTO 22010KT 7SM CLR 32/19 A3006 RMK AO2 T03170186
K0F2 171455Z AUTO 24010G14KT 7SM CLR 31/18 A3006 RMK AO2 T03100184
K0F2 171435Z AUTO 23009KT 7SM CLR 30/18 A3005 RMK AO2 T03040183
K0F2 171415Z AUTO 22007KT 7SM CLR 30/19 A3005 RMK AO2 T02950185